sensor_id;sensor_type;location;lat;lon;timestamp;P1;durP1;ratioP1;P2;durP2;ratioP2
19446;SDS011;9862;49.462;11.054;2023-01-29T00:00:03;6.15;;;5.10;;
19446;SDS011;9862;49.462;11.054;2023-01-29T00:02:34;9.77;;;5.95;;
19446;SDS011;9862;49.462;11.054;2023-01-29T00:05:00;8.10;;;5.53;;
19446;SDS011;9862;49.462;11.054;2023-01-29T00:07:28;9.77;;;6.25;;
19446;SDS011;9862;49.462;11.054;2023-01-29T00:09:54;6.85;;;5.32;;
19446;SDS011;9862;49.462;11.054;2023-01-29T00:12:21;7.82;;;6.00;;
19446;SDS011;9862;49.462;11.054;2023-01-29T00:14:47;6.80;;;5.20;;
19446;SDS011;9862;49.462;11.054;2023-01-29T00:17:15;6.07;;;5.03;;
19446;SDS011;9862;49.462;11.054;2023-01-29T00:19:42;8.52;;;5.22;;
19446;SDS011;9862;49.462;11.054;2023-01-29T00:22:08;8.38;;;5.38;;
19446;SDS011;9862;49.462;11.054;2023-01-29T00:24:35;10.07;;;5.88;;
19446;SDS011;9862;49.462;11.054;2023-01-29T00:27:02;7.88;;;5.22;;
19446;SDS011;9862;49.462;11.054;2023-01-29T00:29:30;6.88;;;4.88;;
19446;SDS011;9862;49.462;11.054;2023-01-29T00:31:56;7.72;;;4.95;;
19446;SDS011;9862;49.462;11.054;2023-01-29T00:34:24;7.80;;;5.05;;
19446;SDS011;9862;49.462;11.054;2023-01-29T00:36:51;6.90;;;4.75;;
19446;SDS011;9862;49.462;11.054;2023-01-29T00:39:29;8.50;;;5.43;;
19446;SDS011;9862;49.462;11.054;2023-01-29T00:42:02;8.23;;;5.05;;
19446;SDS011;9862;49.462;11.054;2023-01-29T00:44:46;6.53;;;5.00;;
19446;SDS011;9862;49.462;11.054;2023-01-29T00:47:25;7.70;;;5.22;;
19446;SDS011;9862;49.462;11.054;2023-01-29T00:50:02;7.63;;;5.20;;
19446;SDS011;9862;49.462;11.054;2023-01-29T00:52:31;11.80;;;5.20;;
19446;SDS011;9862;49.462;11.054;2023-01-29T00:55:00;7.25;;;5.32;;
19446;SDS011;9862;49.462;11.054;2023-01-29T00:57:29;7.28;;;5.10;;
19446;SDS011;9862;49.462;11.054;2023-01-29T00:59:57;8.32;;;4.65;;
19446;SDS011;9862;49.462;11.054;2023-01-29T01:02:24;7.13;;;5.47;;
19446;SDS011;9862;49.462;11.054;2023-01-29T01:05:10;7.00;;;4.82;;
19446;SDS011;9862;49.462;11.054;2023-01-29T01:07:42;6.53;;;5.00;;
19446;SDS011;9862;49.462;11.054;2023-01-29T01:10:11;8.80;;;5.07;;
19446;SDS011;9862;49.462;11.054;2023-01-29T01:12:49;6.95;;;5.15;;
19446;SDS011;9862;49.462;11.054;2023-01-29T01:15:18;7.95;;;5.28;;
19446;SDS011;9862;49.462;11.054;2023-01-29T01:17:45;6.85;;;5.15;;
19446;SDS011;9862;49.462;11.054;2023-01-29T01:22:41;5.90;;;4.55;;
19446;SDS011;9862;49.462;11.054;2023-01-29T01:25:08;6.80;;;4.50;;
19446;SDS011;9862;49.462;11.054;2023-01-29T01:27:35;6.18;;;5.03;;
19446;SDS011;9862;49.462;11.054;2023-01-29T01:30:06;7.35;;;5.45;;
19446;SDS011;9862;49.462;11.054;2023-01-29T01:32:34;7.50;;;5.20;;
19446;SDS011;9862;49.462;11.054;2023-01-29T01:35:01;8.30;;;5.13;;
19446;SDS011;9862;49.462;11.054;2023-01-29T01:37:29;6.65;;;4.75;;
19446;SDS011;9862;49.462;11.054;2023-01-29T01:39:55;9.35;;;5.38;;
19446;SDS011;9862;49.462;11.054;2023-01-29T01:42:22;7.35;;;5.43;;
19446;SDS011;9862;49.462;11.054;2023-01-29T01:44:56;5.82;;;5.00;;
19446;SDS011;9862;49.462;11.054;2023-01-29T01:47:29;7.85;;;5.20;;
19446;SDS011;9862;49.462;11.054;2023-01-29T01:50:00;7.30;;;5.03;;
19446;SDS011;9862;49.462;11.054;2023-01-29T01:52:34;8.10;;;5.40;;
19446;SDS011;9862;49.462;11.054;2023-01-29T01:55:06;7.80;;;4.90;;
19446;SDS011;9862;49.462;11.054;2023-01-29T01:57:37;6.72;;;4.85;;
19446;SDS011;9862;49.462;11.054;2023-01-29T02:00:06;7.05;;;4.97;;
19446;SDS011;9862;49.462;11.054;2023-01-29T02:02:36;10.57;;;6.05;;
19446;SDS011;9862;49.462;11.054;2023-01-29T02:05:22;6.65;;;5.65;;
19446;SDS011;9862;49.462;11.054;2023-01-29T02:08:08;7.10;;;5.28;;
19446;SDS011;9862;49.462;11.054;2023-01-29T02:10:52;9.27;;;5.82;;
19446;SDS011;9862;49.462;11.054;2023-01-29T02:13:20;8.75;;;5.13;;
19446;SDS011;9862;49.462;11.054;2023-01-29T02:15:48;8.55;;;5.35;;
19446;SDS011;9862;49.462;11.054;2023-01-29T02:18:15;7.82;;;5.47;;
19446;SDS011;9862;49.462;11.054;2023-01-29T02:20:43;7.43;;;5.55;;
19446;SDS011;9862;49.462;11.054;2023-01-29T02:23:38;7.97;;;5.50;;
19446;SDS011;9862;49.462;11.054;2023-01-29T02:26:32;7.22;;;5.55;;
19446;SDS011;9862;49.462;11.054;2023-01-29T02:29:13;9.57;;;4.88;;
19446;SDS011;9862;49.462;11.054;2023-01-29T02:31:55;9.52;;;5.25;;
19446;SDS011;9862;49.462;11.054;2023-01-29T02:34:32;7.22;;;5.53;;
19446;SDS011;9862;49.462;11.054;2023-01-29T02:37:24;7.05;;;5.00;;
19446;SDS011;9862;49.462;11.054;2023-01-29T02:39:59;10.38;;;5.38;;
19446;SDS011;9862;49.462;11.054;2023-01-29T02:42:33;7.93;;;4.78;;
19446;SDS011;9862;49.462;11.054;2023-01-29T02:45:04;7.95;;;5.10;;
19446;SDS011;9862;49.462;11.054;2023-01-29T02:47:39;7.78;;;5.57;;
19446;SDS011;9862;49.462;11.054;2023-01-29T02:50:12;9.90;;;6.18;;
19446;SDS011;9862;49.462;11.054;2023-01-29T02:52:45;8.32;;;5.07;;
19446;SDS011;9862;49.462;11.054;2023-01-29T02:55:20;8.27;;;6.10;;
19446;SDS011;9862;49.462;11.054;2023-01-29T02:57:51;6.80;;;5.32;;
19446;SDS011;9862;49.462;11.054;2023-01-29T03:00:24;6.20;;;5.03;;
19446;SDS011;9862;49.462;11.054;2023-01-29T03:02:56;7.15;;;5.20;;
19446;SDS011;9862;49.462;11.054;2023-01-29T03:05:27;7.72;;;5.10;;
19446;SDS011;9862;49.462;11.054;2023-01-29T03:08:00;8.45;;;5.03;;
19446;SDS011;9862;49.462;11.054;2023-01-29T03:10:32;9.57;;;5.55;;
19446;SDS011;9862;49.462;11.054;2023-01-29T03:13:05;7.30;;;5.25;;
19446;SDS011;9862;49.462;11.054;2023-01-29T03:15:39;5.55;;;5.05;;
19446;SDS011;9862;49.462;11.054;2023-01-29T03:18:12;7.78;;;5.90;;
19446;SDS011;9862;49.462;11.054;2023-01-29T03:20:43;7.05;;;5.50;;
19446;SDS011;9862;49.462;11.054;2023-01-29T03:23:15;7.53;;;5.15;;
19446;SDS011;9862;49.462;11.054;2023-01-29T03:26:02;7.05;;;5.30;;
19446;SDS011;9862;49.462;11.054;2023-01-29T03:28:47;6.88;;;5.70;;
19446;SDS011;9862;49.462;11.054;2023-01-29T03:31:33;7.63;;;5.30;;
19446;SDS011;9862;49.462;11.054;2023-01-29T03:34:20;7.43;;;5.05;;
19446;SDS011;9862;49.462;11.054;2023-01-29T03:36:53;7.88;;;5.30;;
19446;SDS011;9862;49.462;11.054;2023-01-29T03:39:23;6.93;;;5.45;;
19446;SDS011;9862;49.462;11.054;2023-01-29T03:41:53;6.90;;;5.32;;
19446;SDS011;9862;49.462;11.054;2023-01-29T03:44:28;6.40;;;5.07;;
19446;SDS011;9862;49.462;11.054;2023-01-29T03:47:05;7.20;;;5.65;;
19446;SDS011;9862;49.462;11.054;2023-01-29T03:49:42;6.82;;;5.10;;
19446;SDS011;9862;49.462;11.054;2023-01-29T03:52:18;6.40;;;5.05;;
19446;SDS011;9862;49.462;11.054;2023-01-29T03:54:50;7.05;;;5.47;;
19446;SDS011;9862;49.462;11.054;2023-01-29T03:57:24;8.40;;;6.10;;
19446;SDS011;9862;49.462;11.054;2023-01-29T03:59:57;8.07;;;5.85;;
19446;SDS011;9862;49.462;11.054;2023-01-29T04:02:34;10.60;;;6.22;;
19446;SDS011;9862;49.462;11.054;2023-01-29T04:05:08;8.43;;;5.55;;
19446;SDS011;9862;49.462;11.054;2023-01-29T04:07:39;7.63;;;5.45;;
19446;SDS011;9862;49.462;11.054;2023-01-29T04:10:10;7.55;;;5.20;;
19446;SDS011;9862;49.462;11.054;2023-01-29T04:12:42;8.55;;;6.20;;
19446;SDS011;9862;49.462;11.054;2023-01-29T04:15:13;7.28;;;5.00;;
19446;SDS011;9862;49.462;11.054;2023-01-29T04:17:44;7.18;;;5.25;;
19446;SDS011;9862;49.462;11.054;2023-01-29T04:20:15;6.90;;;5.05;;
19446;SDS011;9862;49.462;11.054;2023-01-29T04:22:43;7.05;;;5.20;;
19446;SDS011;9862;49.462;11.054;2023-01-29T04:25:12;8.27;;;5.35;;
19446;SDS011;9862;49.462;11.054;2023-01-29T04:27:42;5.85;;;5.03;;
19446;SDS011;9862;49.462;11.054;2023-01-29T04:30:17;6.72;;;5.50;;
19446;SDS011;9862;49.462;11.054;2023-01-29T04:33:02;8.60;;;5.55;;
19446;SDS011;9862;49.462;11.054;2023-01-29T04:35:35;8.15;;;4.85;;
19446;SDS011;9862;49.462;11.054;2023-01-29T04:38:15;8.43;;;5.28;;
19446;SDS011;9862;49.462;11.054;2023-01-29T04:40:54;8.25;;;5.90;;
19446;SDS011;9862;49.462;11.054;2023-01-29T04:43:28;7.95;;;5.88;;
19446;SDS011;9862;49.462;11.054;2023-01-29T04:46:07;7.22;;;5.70;;
19446;SDS011;9862;49.462;11.054;2023-01-29T04:48:43;7.28;;;5.57;;
19446;SDS011;9862;49.462;11.054;2023-01-29T04:51:24;7.28;;;5.70;;
19446;SDS011;9862;49.462;11.054;2023-01-29T04:54:00;9.02;;;5.97;;
19446;SDS011;9862;49.462;11.054;2023-01-29T04:56:35;7.03;;;5.28;;
19446;SDS011;9862;49.462;11.054;2023-01-29T04:59:08;7.40;;;5.65;;
19446;SDS011;9862;49.462;11.054;2023-01-29T05:01:38;7.57;;;5.90;;
19446;SDS011;9862;49.462;11.054;2023-01-29T05:04:08;7.22;;;5.55;;
19446;SDS011;9862;49.462;11.054;2023-01-29T05:06:38;7.40;;;5.95;;
19446;SDS011;9862;49.462;11.054;2023-01-29T05:09:06;7.05;;;5.32;;
19446;SDS011;9862;49.462;11.054;2023-01-29T05:11:34;10.52;;;6.10;;
19446;SDS011;9862;49.462;11.054;2023-01-29T05:14:02;6.65;;;5.82;;
19446;SDS011;9862;49.462;11.054;2023-01-29T05:16:33;7.88;;;5.97;;
19446;SDS011;9862;49.462;11.054;2023-01-29T05:19:07;8.27;;;6.15;;
19446;SDS011;9862;49.462;11.054;2023-01-29T05:21:34;8.13;;;6.18;;
19446;SDS011;9862;49.462;11.054;2023-01-29T05:24:10;7.68;;;6.25;;
19446;SDS011;9862;49.462;11.054;2023-01-29T05:26:39;6.82;;;6.13;;
19446;SDS011;9862;49.462;11.054;2023-01-29T05:29:25;7.57;;;5.65;;
19446;SDS011;9862;49.462;11.054;2023-01-29T05:31:51;7.18;;;5.80;;
19446;SDS011;9862;49.462;11.054;2023-01-29T05:34:19;9.88;;;6.25;;
19446;SDS011;9862;49.462;11.054;2023-01-29T05:36:46;9.65;;;6.45;;
19446;SDS011;9862;49.462;11.054;2023-01-29T05:39:12;11.70;;;5.95;;
19446;SDS011;9862;49.462;11.054;2023-01-29T05:41:39;7.07;;;5.22;;
19446;SDS011;9862;49.462;11.054;2023-01-29T05:44:05;6.65;;;5.18;;
19446;SDS011;9862;49.462;11.054;2023-01-29T05:46:32;7.95;;;5.75;;
19446;SDS011;9862;49.462;11.054;2023-01-29T05:48:59;8.60;;;6.57;;
19446;SDS011;9862;49.462;11.054;2023-01-29T05:51:26;7.10;;;6.13;;
19446;SDS011;9862;49.462;11.054;2023-01-29T05:53:53;8.13;;;6.35;;
19446;SDS011;9862;49.462;11.054;2023-01-29T05:56:20;9.45;;;6.38;;
19446;SDS011;9862;49.462;11.054;2023-01-29T05:58:46;10.82;;;6.05;;
19446;SDS011;9862;49.462;11.054;2023-01-29T06:01:14;7.53;;;6.25;;
19446;SDS011;9862;49.462;11.054;2023-01-29T06:03:42;8.40;;;5.85;;
19446;SDS011;9862;49.462;11.054;2023-01-29T06:06:09;7.20;;;5.68;;
19446;SDS011;9862;49.462;11.054;2023-01-29T06:08:37;7.57;;;6.03;;
19446;SDS011;9862;49.462;11.054;2023-01-29T06:11:06;9.50;;;6.22;;
19446;SDS011;9862;49.462;11.054;2023-01-29T06:13:33;7.60;;;6.38;;
19446;SDS011;9862;49.462;11.054;2023-01-29T06:16:03;13.35;;;8.40;;
19446;SDS011;9862;49.462;11.054;2023-01-29T06:18:30;9.88;;;7.50;;
19446;SDS011;9862;49.462;11.054;2023-01-29T06:20:58;9.95;;;6.25;;
19446;SDS011;9862;49.462;11.054;2023-01-29T06:23:25;8.07;;;6.47;;
19446;SDS011;9862;49.462;11.054;2023-01-29T06:25:57;10.07;;;7.25;;
19446;SDS011;9862;49.462;11.054;2023-01-29T06:28:25;10.25;;;7.28;;
19446;SDS011;9862;49.462;11.054;2023-01-29T06:30:51;10.23;;;7.15;;
19446;SDS011;9862;49.462;11.054;2023-01-29T06:33:18;11.35;;;7.50;;
19446;SDS011;9862;49.462;11.054;2023-01-29T06:35:44;10.98;;;6.78;;
19446;SDS011;9862;49.462;11.054;2023-01-29T06:38:11;15.40;;;9.32;;
19446;SDS011;9862;49.462;11.054;2023-01-29T06:40:37;14.02;;;8.50;;
19446;SDS011;9862;49.462;11.054;2023-01-29T06:43:05;8.05;;;6.13;;
19446;SDS011;9862;49.462;11.054;2023-01-29T06:45:32;9.60;;;6.40;;
19446;SDS011;9862;49.462;11.054;2023-01-29T06:47:59;10.30;;;7.50;;
19446;SDS011;9862;49.462;11.054;2023-01-29T06:50:25;13.05;;;9.38;;
19446;SDS011;9862;49.462;11.054;2023-01-29T06:52:52;10.57;;;7.20;;
19446;SDS011;9862;49.462;11.054;2023-01-29T06:55:18;11.57;;;8.88;;
19446;SDS011;9862;49.462;11.054;2023-01-29T06:57:45;13.98;;;8.15;;
19446;SDS011;9862;49.462;11.054;2023-01-29T07:00:13;8.10;;;6.28;;
19446;SDS011;9862;49.462;11.054;2023-01-29T07:02:41;8.38;;;6.43;;
19446;SDS011;9862;49.462;11.054;2023-01-29T07:05:07;10.27;;;6.68;;
19446;SDS011;9862;49.462;11.054;2023-01-29T07:07:34;7.75;;;5.70;;
19446;SDS011;9862;49.462;11.054;2023-01-29T07:10:01;11.05;;;7.15;;
19446;SDS011;9862;49.462;11.054;2023-01-29T07:12:28;9.75;;;6.60;;
19446;SDS011;9862;49.462;11.054;2023-01-29T07:14:55;11.57;;;6.60;;
19446;SDS011;9862;49.462;11.054;2023-01-29T07:17:22;8.20;;;5.95;;
19446;SDS011;9862;49.462;11.054;2023-01-29T07:19:49;8.77;;;6.38;;
19446;SDS011;9862;49.462;11.054;2023-01-29T07:22:15;9.75;;;6.72;;
19446;SDS011;9862;49.462;11.054;2023-01-29T07:24:42;10.25;;;6.57;;
19446;SDS011;9862;49.462;11.054;2023-01-29T07:27:08;9.50;;;6.43;;
19446;SDS011;9862;49.462;11.054;2023-01-29T07:29:35;9.88;;;7.22;;
19446;SDS011;9862;49.462;11.054;2023-01-29T07:32:02;8.48;;;6.20;;
19446;SDS011;9862;49.462;11.054;2023-01-29T07:34:30;10.30;;;6.78;;
19446;SDS011;9862;49.462;11.054;2023-01-29T07:36:56;11.43;;;7.65;;
19446;SDS011;9862;49.462;11.054;2023-01-29T07:39:23;8.93;;;6.43;;
19446;SDS011;9862;49.462;11.054;2023-01-29T07:41:49;10.00;;;6.93;;
19446;SDS011;9862;49.462;11.054;2023-01-29T07:44:16;7.60;;;6.15;;
19446;SDS011;9862;49.462;11.054;2023-01-29T07:46:42;9.13;;;6.40;;
19446;SDS011;9862;49.462;11.054;2023-01-29T07:49:09;9.90;;;6.95;;
19446;SDS011;9862;49.462;11.054;2023-01-29T07:51:37;9.05;;;6.53;;
19446;SDS011;9862;49.462;11.054;2023-01-29T07:54:03;8.77;;;6.38;;
19446;SDS011;9862;49.462;11.054;2023-01-29T07:56:30;10.45;;;6.72;;
19446;SDS011;9862;49.462;11.054;2023-01-29T07:58:56;10.70;;;6.43;;
19446;SDS011;9862;49.462;11.054;2023-01-29T08:01:23;10.18;;;8.10;;
19446;SDS011;9862;49.462;11.054;2023-01-29T08:03:50;8.90;;;7.18;;
19446;SDS011;9862;49.462;11.054;2023-01-29T08:06:16;12.43;;;8.50;;
19446;SDS011;9862;49.462;11.054;2023-01-29T08:08:45;11.70;;;6.72;;
19446;SDS011;9862;49.462;11.054;2023-01-29T08:11:11;13.68;;;8.35;;
19446;SDS011;9862;49.462;11.054;2023-01-29T08:13:39;9.80;;;7.28;;
19446;SDS011;9862;49.462;11.054;2023-01-29T08:16:06;10.52;;;6.57;;
19446;SDS011;9862;49.462;11.054;2023-01-29T08:18:35;9.95;;;6.72;;
19446;SDS011;9862;49.462;11.054;2023-01-29T08:21:02;9.50;;;6.78;;
19446;SDS011;9862;49.462;11.054;2023-01-29T08:23:28;10.35;;;7.05;;
19446;SDS011;9862;49.462;11.054;2023-01-29T08:25:57;11.10;;;8.15;;
19446;SDS011;9862;49.462;11.054;2023-01-29T08:28:23;12.20;;;7.90;;
19446;SDS011;9862;49.462;11.054;2023-01-29T08:30:50;12.43;;;7.30;;
19446;SDS011;9862;49.462;11.054;2023-01-29T08:33:16;9.73;;;6.70;;
19446;SDS011;9862;49.462;11.054;2023-01-29T08:35:43;12.25;;;7.30;;
19446;SDS011;9862;49.462;11.054;2023-01-29T08:38:14;9.13;;;6.88;;
19446;SDS011;9862;49.462;11.054;2023-01-29T08:40:40;11.57;;;7.22;;
19446;SDS011;9862;49.462;11.054;2023-01-29T08:43:09;9.52;;;6.55;;
19446;SDS011;9862;49.462;11.054;2023-01-29T08:45:39;11.45;;;7.22;;
19446;SDS011;9862;49.462;11.054;2023-01-29T08:48:07;11.35;;;7.32;;
19446;SDS011;9862;49.462;11.054;2023-01-29T08:50:34;10.10;;;7.10;;
19446;SDS011;9862;49.462;11.054;2023-01-29T08:53:01;11.27;;;7.47;;
19446;SDS011;9862;49.462;11.054;2023-01-29T08:55:31;9.52;;;7.50;;
19446;SDS011;9862;49.462;11.054;2023-01-29T08:57:58;10.50;;;7.57;;
19446;SDS011;9862;49.462;11.054;2023-01-29T09:00:26;8.80;;;6.63;;
19446;SDS011;9862;49.462;11.054;2023-01-29T09:02:52;11.75;;;7.68;;
19446;SDS011;9862;49.462;11.054;2023-01-29T09:05:19;11.73;;;7.75;;
19446;SDS011;9862;49.462;11.054;2023-01-29T09:07:46;19.25;;;11.35;;
19446;SDS011;9862;49.462;11.054;2023-01-29T09:10:12;11.55;;;7.53;;
19446;SDS011;9862;49.462;11.054;2023-01-29T09:12:38;12.63;;;7.72;;
19446;SDS011;9862;49.462;11.054;2023-01-29T09:15:05;10.07;;;7.60;;
19446;SDS011;9862;49.462;11.054;2023-01-29T09:17:34;9.23;;;7.35;;
19446;SDS011;9862;49.462;11.054;2023-01-29T09:20:01;11.75;;;6.93;;
19446;SDS011;9862;49.462;11.054;2023-01-29T09:22:27;12.00;;;7.65;;
19446;SDS011;9862;49.462;11.054;2023-01-29T09:24:54;10.90;;;7.40;;
19446;SDS011;9862;49.462;11.054;2023-01-29T09:27:20;11.35;;;7.43;;
19446;SDS011;9862;49.462;11.054;2023-01-29T09:29:47;10.20;;;7.32;;
19446;SDS011;9862;49.462;11.054;2023-01-29T09:32:13;11.75;;;7.78;;
19446;SDS011;9862;49.462;11.054;2023-01-29T09:34:41;12.20;;;8.35;;
19446;SDS011;9862;49.462;11.054;2023-01-29T09:37:08;12.35;;;7.95;;
19446;SDS011;9862;49.462;11.054;2023-01-29T09:39:34;11.05;;;7.60;;
19446;SDS011;9862;49.462;11.054;2023-01-29T09:42:02;10.82;;;8.18;;
19446;SDS011;9862;49.462;11.054;2023-01-29T09:44:39;10.95;;;8.02;;
19446;SDS011;9862;49.462;11.054;2023-01-29T09:47:17;13.70;;;8.85;;
19446;SDS011;9862;49.462;11.054;2023-01-29T09:49:47;10.40;;;7.63;;
19446;SDS011;9862;49.462;11.054;2023-01-29T09:52:18;13.18;;;8.80;;
19446;SDS011;9862;49.462;11.054;2023-01-29T09:54:53;23.58;;;12.68;;
19446;SDS011;9862;49.462;11.054;2023-01-29T09:57:26;11.15;;;7.63;;
19446;SDS011;9862;49.462;11.054;2023-01-29T09:59:59;10.75;;;7.30;;
19446;SDS011;9862;49.462;11.054;2023-01-29T10:02:37;12.13;;;7.95;;
19446;SDS011;9862;49.462;11.054;2023-01-29T10:05:24;14.63;;;7.13;;
19446;SDS011;9862;49.462;11.054;2023-01-29T10:08:11;10.35;;;7.45;;
19446;SDS011;9862;49.462;11.054;2023-01-29T10:10:50;11.27;;;7.25;;
19446;SDS011;9862;49.462;11.054;2023-01-29T10:13:26;10.25;;;7.43;;
19446;SDS011;9862;49.462;11.054;2023-01-29T10:16:09;11.13;;;7.25;;
19446;SDS011;9862;49.462;11.054;2023-01-29T10:21:59;10.95;;;7.40;;
19446;SDS011;9862;49.462;11.054;2023-01-29T10:24:36;11.85;;;7.50;;
19446;SDS011;9862;49.462;11.054;2023-01-29T10:27:07;13.07;;;8.48;;
19446;SDS011;9862;49.462;11.054;2023-01-29T10:29:39;14.52;;;7.88;;
19446;SDS011;9862;49.462;11.054;2023-01-29T10:32:08;13.20;;;7.32;;
19446;SDS011;9862;49.462;11.054;2023-01-29T10:34:41;11.77;;;7.40;;
19446;SDS011;9862;49.462;11.054;2023-01-29T10:37:15;11.85;;;7.60;;
19446;SDS011;9862;49.462;11.054;2023-01-29T10:39:43;9.10;;;6.70;;
19446;SDS011;9862;49.462;11.054;2023-01-29T10:42:18;11.13;;;7.25;;
19446;SDS011;9862;49.462;11.054;2023-01-29T10:45:02;14.27;;;7.32;;
19446;SDS011;9862;49.462;11.054;2023-01-29T10:50:39;11.25;;;7.32;;
19446;SDS011;9862;49.462;11.054;2023-01-29T10:56:18;12.48;;;7.20;;
19446;SDS011;9862;49.462;11.054;2023-01-29T10:58:53;11.40;;;7.10;;
19446;SDS011;9862;49.462;11.054;2023-01-29T11:01:23;13.60;;;7.63;;
19446;SDS011;9862;49.462;11.054;2023-01-29T11:03:53;11.00;;;7.20;;
19446;SDS011;9862;49.462;11.054;2023-01-29T11:06:23;13.07;;;8.07;;
19446;SDS011;9862;49.462;11.054;2023-01-29T11:08:57;12.07;;;8.10;;
19446;SDS011;9862;49.462;11.054;2023-01-29T11:11:30;12.18;;;7.47;;
19446;SDS011;9862;49.462;11.054;2023-01-29T11:14:01;12.77;;;7.80;;
19446;SDS011;9862;49.462;11.054;2023-01-29T11:16:39;12.73;;;8.15;;
19446;SDS011;9862;49.462;11.054;2023-01-29T11:19:07;14.05;;;7.80;;
19446;SDS011;9862;49.462;11.054;2023-01-29T11:21:48;12.05;;;7.47;;
19446;SDS011;9862;49.462;11.054;2023-01-29T11:24:18;9.98;;;7.35;;
19446;SDS011;9862;49.462;11.054;2023-01-29T11:26:45;13.93;;;8.48;;
19446;SDS011;9862;49.462;11.054;2023-01-29T11:29:30;15.38;;;9.05;;
19446;SDS011;9862;49.462;11.054;2023-01-29T11:32:10;11.57;;;7.32;;
19446;SDS011;9862;49.462;11.054;2023-01-29T11:34:57;11.93;;;8.02;;
19446;SDS011;9862;49.462;11.054;2023-01-29T11:37:30;11.50;;;7.72;;
19446;SDS011;9862;49.462;11.054;2023-01-29T11:40:00;11.55;;;7.57;;
19446;SDS011;9862;49.462;11.054;2023-01-29T11:42:48;10.40;;;7.25;;
19446;SDS011;9862;49.462;11.054;2023-01-29T11:45:23;11.90;;;8.55;;
19446;SDS011;9862;49.462;11.054;2023-01-29T11:47:51;10.90;;;7.50;;
19446;SDS011;9862;49.462;11.054;2023-01-29T11:50:21;13.07;;;7.88;;
19446;SDS011;9862;49.462;11.054;2023-01-29T11:52:50;11.38;;;8.00;;
19446;SDS011;9862;49.462;11.054;2023-01-29T11:55:18;13.13;;;8.32;;
19446;SDS011;9862;49.462;11.054;2023-01-29T11:57:48;14.82;;;9.38;;
19446;SDS011;9862;49.462;11.054;2023-01-29T12:00:19;13.88;;;9.27;;
19446;SDS011;9862;49.462;11.054;2023-01-29T12:02:48;14.15;;;7.93;;
19446;SDS011;9862;49.462;11.054;2023-01-29T12:05:19;11.13;;;8.38;;
19446;SDS011;9862;49.462;11.054;2023-01-29T12:07:48;14.30;;;8.57;;
19446;SDS011;9862;49.462;11.054;2023-01-29T12:10:31;13.25;;;8.02;;
19446;SDS011;9862;49.462;11.054;2023-01-29T12:13:03;15.13;;;8.82;;
19446;SDS011;9862;49.462;11.054;2023-01-29T12:15:30;11.07;;;7.82;;
19446;SDS011;9862;49.462;11.054;2023-01-29T12:17:59;13.30;;;7.85;;
19446;SDS011;9862;49.462;11.054;2023-01-29T12:20:32;14.18;;;7.78;;
19446;SDS011;9862;49.462;11.054;2023-01-29T12:23:03;13.65;;;8.48;;
19446;SDS011;9862;49.462;11.054;2023-01-29T12:25:43;14.30;;;9.30;;
19446;SDS011;9862;49.462;11.054;2023-01-29T12:28:18;12.70;;;7.88;;
19446;SDS011;9862;49.462;11.054;2023-01-29T12:31:00;13.25;;;8.30;;
19446;SDS011;9862;49.462;11.054;2023-01-29T12:33:35;13.68;;;7.30;;
19446;SDS011;9862;49.462;11.054;2023-01-29T12:36:09;10.88;;;7.25;;
19446;SDS011;9862;49.462;11.054;2023-01-29T12:38:42;13.02;;;8.10;;
19446;SDS011;9862;49.462;11.054;2023-01-29T12:41:14;12.50;;;7.50;;
19446;SDS011;9862;49.462;11.054;2023-01-29T12:43:51;13.07;;;8.30;;
19446;SDS011;9862;49.462;11.054;2023-01-29T12:46:21;12.65;;;7.32;;
19446;SDS011;9862;49.462;11.054;2023-01-29T12:48:53;12.43;;;7.35;;
19446;SDS011;9862;49.462;11.054;2023-01-29T12:51:24;9.95;;;7.75;;
19446;SDS011;9862;49.462;11.054;2023-01-29T12:53:58;11.13;;;7.68;;
19446;SDS011;9862;49.462;11.054;2023-01-29T12:56:31;11.25;;;7.50;;
19446;SDS011;9862;49.462;11.054;2023-01-29T12:59:03;49.05;;;21.85;;
19446;SDS011;9862;49.462;11.054;2023-01-29T13:01:35;16.40;;;9.50;;
19446;SDS011;9862;49.462;11.054;2023-01-29T13:04:09;12.23;;;7.72;;
19446;SDS011;9862;49.462;11.054;2023-01-29T13:06:41;11.25;;;7.30;;
19446;SDS011;9862;49.462;11.054;2023-01-29T13:09:13;10.50;;;6.95;;
19446;SDS011;9862;49.462;11.054;2023-01-29T13:11:47;10.23;;;7.53;;
19446;SDS011;9862;49.462;11.054;2023-01-29T13:14:19;15.23;;;8.80;;
19446;SDS011;9862;49.462;11.054;2023-01-29T13:16:50;16.55;;;8.80;;
19446;SDS011;9862;49.462;11.054;2023-01-29T13:19:23;19.15;;;8.85;;
19446;SDS011;9862;49.462;11.054;2023-01-29T13:21:53;14.50;;;7.68;;
19446;SDS011;9862;49.462;11.054;2023-01-29T13:24:24;12.02;;;7.75;;
19446;SDS011;9862;49.462;11.054;2023-01-29T13:27:00;12.65;;;7.57;;
19446;SDS011;9862;49.462;11.054;2023-01-29T13:29:27;10.65;;;6.57;;
19446;SDS011;9862;49.462;11.054;2023-01-29T13:31:55;10.10;;;7.00;;
19446;SDS011;9862;49.462;11.054;2023-01-29T13:34:24;11.88;;;7.57;;
19446;SDS011;9862;49.462;11.054;2023-01-29T13:36:56;11.18;;;6.53;;
19446;SDS011;9862;49.462;11.054;2023-01-29T13:39:25;13.25;;;7.05;;
19446;SDS011;9862;49.462;11.054;2023-01-29T13:41:55;9.63;;;6.85;;
19446;SDS011;9862;49.462;11.054;2023-01-29T13:44:25;9.52;;;6.85;;
19446;SDS011;9862;49.462;11.054;2023-01-29T13:46:55;11.07;;;6.85;;
19446;SDS011;9862;49.462;11.054;2023-01-29T13:49:25;11.55;;;6.82;;
19446;SDS011;9862;49.462;11.054;2023-01-29T13:51:55;16.83;;;8.82;;
19446;SDS011;9862;49.462;11.054;2023-01-29T13:54:23;12.20;;;7.03;;
19446;SDS011;9862;49.462;11.054;2023-01-29T13:56:56;9.20;;;6.25;;
19446;SDS011;9862;49.462;11.054;2023-01-29T13:59:47;10.27;;;6.20;;
19446;SDS011;9862;49.462;11.054;2023-01-29T14:02:24;8.77;;;6.38;;
19446;SDS011;9862;49.462;11.054;2023-01-29T14:07:52;8.77;;;5.63;;
19446;SDS011;9862;49.462;11.054;2023-01-29T14:10:19;9.52;;;6.63;;
19446;SDS011;9862;49.462;11.054;2023-01-29T14:12:49;8.15;;;5.68;;
19446;SDS011;9862;49.462;11.054;2023-01-29T14:20:54;11.90;;;6.20;;
19446;SDS011;9862;49.462;11.054;2023-01-29T14:23:27;10.32;;;6.90;;
19446;SDS011;9862;49.462;11.054;2023-01-29T14:26:01;9.88;;;6.28;;
19446;SDS011;9862;49.462;11.054;2023-01-29T14:28:30;11.15;;;6.95;;
19446;SDS011;9862;49.462;11.054;2023-01-29T14:31:00;13.02;;;7.45;;
19446;SDS011;9862;49.462;11.054;2023-01-29T14:33:31;16.42;;;6.90;;
19446;SDS011;9862;49.462;11.054;2023-01-29T14:36:02;10.20;;;6.38;;
19446;SDS011;9862;49.462;11.054;2023-01-29T14:38:31;9.23;;;5.88;;
19446;SDS011;9862;49.462;11.054;2023-01-29T14:41:04;9.85;;;5.93;;
19446;SDS011;9862;49.462;11.054;2023-01-29T14:43:34;8.63;;;5.63;;
19446;SDS011;9862;49.462;11.054;2023-01-29T14:49:06;11.15;;;6.25;;
19446;SDS011;9862;49.462;11.054;2023-01-29T14:51:34;10.35;;;6.13;;
19446;SDS011;9862;49.462;11.054;2023-01-29T14:54:05;7.78;;;5.90;;
19446;SDS011;9862;49.462;11.054;2023-01-29T14:56:44;8.85;;;5.63;;
19446;SDS011;9862;49.462;11.054;2023-01-29T14:59:19;10.00;;;6.07;;
19446;SDS011;9862;49.462;11.054;2023-01-29T15:01:53;9.07;;;6.00;;
19446;SDS011;9862;49.462;11.054;2023-01-29T15:04:24;9.23;;;6.30;;
19446;SDS011;9862;49.462;11.054;2023-01-29T15:06:54;11.82;;;6.65;;
19446;SDS011;9862;49.462;11.054;2023-01-29T15:09:29;8.95;;;6.05;;
19446;SDS011;9862;49.462;11.054;2023-01-29T15:12:02;9.80;;;6.63;;
19446;SDS011;9862;49.462;11.054;2023-01-29T15:14:38;9.30;;;5.78;;
19446;SDS011;9862;49.462;11.054;2023-01-29T15:17:16;9.43;;;6.00;;
19446;SDS011;9862;49.462;11.054;2023-01-29T15:19:49;10.57;;;6.00;;
19446;SDS011;9862;49.462;11.054;2023-01-29T15:22:16;8.88;;;5.90;;
19446;SDS011;9862;49.462;11.054;2023-01-29T15:24:45;12.60;;;6.82;;
19446;SDS011;9862;49.462;11.054;2023-01-29T15:27:14;10.73;;;6.18;;